createdAt,value
2022-08-17T00:00:49.345Z,989.49
2022-08-17T00:01:52.528Z,989.53
2022-08-17T00:02:42.858Z,989.51
2022-08-17T00:03:38.525Z,989.55
2022-08-17T00:04:38.509Z,989.52
2022-08-17T00:05:38.498Z,989.51
2022-08-17T00:06:38.481Z,989.50
2022-08-17T00:07:38.470Z,989.51
2022-08-17T00:08:38.458Z,989.49
2022-08-17T00:09:38.444Z,989.49
2022-08-17T00:10:38.430Z,989.51
2022-08-17T00:11:38.419Z,989.47
2022-08-17T00:12:43.259Z,989.43
2022-08-17T00:13:38.392Z,989.48
2022-08-17T00:14:38.378Z,989.44
2022-08-17T00:15:38.370Z,989.41
2022-08-17T00:16:56.592Z,989.45
2022-08-17T00:17:38.343Z,989.43
2022-08-17T00:18:53.732Z,989.46
2022-08-17T00:19:38.315Z,989.47
2022-08-17T00:20:38.301Z,989.40
2022-08-17T00:22:30.781Z,989.47
2022-08-17T00:22:38.274Z,989.44
2022-08-17T00:23:38.266Z,989.45
2022-08-17T00:24:38.249Z,989.48
2022-08-17T00:25:38.237Z,989.48
2022-08-17T00:26:44.674Z,989.46
2022-08-17T00:27:38.211Z,989.48
2022-08-17T00:28:38.198Z,989.49
2022-08-17T00:29:38.188Z,989.50
2022-08-17T00:30:50.906Z,989.49
2022-08-17T00:31:38.160Z,989.49
2022-08-17T00:33:16.011Z,989.48
2022-08-17T00:33:38.136Z,989.44
2022-08-17T00:34:38.122Z,989.42
2022-08-17T00:35:38.108Z,989.46
2022-08-17T00:36:38.093Z,989.44
2022-08-17T00:37:38.083Z,989.45
2022-08-17T00:38:38.068Z,989.46
2022-08-17T00:39:38.079Z,989.44
2022-08-17T00:40:40.606Z,989.43
2022-08-17T00:41:42.559Z,989.41
2022-08-17T00:42:38.017Z,989.41
2022-08-17T00:43:38.005Z,989.45
2022-08-17T00:44:37.989Z,989.48
2022-08-17T00:45:37.977Z,989.47
2022-08-17T00:46:37.964Z,989.51
2022-08-17T00:47:37.953Z,989.49
2022-08-17T00:48:37.941Z,989.53
2022-08-17T00:49:37.928Z,989.50
2022-08-17T00:50:37.913Z,989.46
2022-08-17T00:51:37.901Z,989.50
2022-08-17T00:52:37.888Z,989.48
2022-08-17T00:53:37.876Z,989.43
2022-08-17T00:54:41.909Z,989.41
2022-08-17T00:55:37.848Z,989.49
2022-08-17T00:56:37.834Z,989.46
2022-08-17T00:57:37.822Z,989.43
2022-08-17T00:58:37.810Z,989.46
2022-08-17T00:59:37.797Z,989.43
2022-08-17T01:00:37.786Z,989.42
2022-08-17T01:01:37.848Z,989.41
2022-08-17T01:02:51.754Z,989.42
2022-08-17T01:03:37.745Z,989.45
2022-08-17T01:04:37.736Z,989.42
2022-08-17T01:05:37.720Z,989.38
2022-08-17T01:06:37.706Z,989.39
2022-08-17T01:07:38.072Z,989.42
2022-08-17T01:08:37.680Z,989.44
2022-08-17T01:09:37.668Z,989.32
2022-08-17T01:10:58.624Z,989.34
2022-08-17T01:11:37.644Z,989.37
2022-08-17T01:12:37.628Z,989.31
2022-08-17T01:13:41.189Z,989.35
2022-08-17T01:14:37.603Z,989.33
2022-08-17T01:15:37.591Z,989.26
2022-08-17T01:16:37.579Z,989.26
2022-08-17T01:17:37.565Z,989.21
2022-08-17T01:18:37.551Z,989.19
2022-08-17T01:19:37.538Z,989.33
2022-08-17T01:20:43.083Z,989.28
2022-08-17T01:21:37.513Z,989.28
2022-08-17T01:22:37.499Z,989.34
2022-08-17T01:23:37.487Z,989.36
2022-08-17T01:24:37.472Z,989.34
2022-08-17T01:25:37.463Z,989.37
2022-08-17T01:26:37.447Z,989.35
2022-08-17T01:27:37.435Z,989.42
2022-08-17T01:28:53.934Z,989.35
2022-08-17T01:29:37.415Z,989.33
2022-08-17T01:30:58.091Z,989.33
2022-08-17T01:31:37.384Z,989.36
2022-08-17T01:32:37.371Z,989.33
2022-08-17T01:33:37.357Z,989.32
2022-08-17T01:34:42.927Z,989.40
2022-08-17T01:35:37.332Z,989.34
2022-08-17T01:36:37.318Z,989.43
2022-08-17T01:37:37.307Z,989.40
2022-08-17T01:38:37.291Z,989.45
2022-08-17T01:39:37.381Z,989.53
2022-08-17T01:40:37.266Z,989.41
2022-08-17T01:41:37.255Z,989.44
2022-08-17T01:42:37.240Z,989.42
2022-08-17T01:43:37.229Z,989.43
2022-08-17T01:44:37.214Z,989.45
2022-08-17T01:45:37.204Z,989.50
2022-08-17T01:46:37.195Z,989.52
2022-08-17T01:47:37.176Z,989.42
2022-08-17T01:48:37.163Z,989.46
2022-08-17T01:49:37.154Z,989.53
2022-08-17T01:50:37.136Z,989.46
2022-08-17T01:51:37.125Z,989.50
2022-08-17T01:52:37.111Z,989.49
2022-08-17T01:53:37.098Z,989.45
2022-08-17T01:54:37.085Z,989.39
2022-08-17T01:55:37.074Z,989.36
2022-08-17T01:56:37.059Z,989.39
2022-08-17T01:57:37.048Z,989.39
2022-08-17T01:58:37.032Z,989.35
2022-08-17T01:59:37.020Z,989.43
2022-08-17T02:00:59.751Z,989.42
2022-08-17T02:01:37.047Z,989.42
2022-08-17T02:02:36.980Z,989.47
2022-08-17T02:03:36.970Z,989.47
2022-08-17T02:04:36.954Z,989.46
2022-08-17T02:05:36.944Z,989.52
2022-08-17T02:06:47.045Z,989.50
2022-08-17T02:07:59.521Z,989.52
2022-08-17T02:08:39.474Z,989.52
2022-08-17T02:09:38.890Z,989.43
2022-08-17T02:10:36.876Z,989.44
2022-08-17T02:11:36.866Z,989.48
2022-08-17T02:12:37.702Z,989.43
2022-08-17T02:13:36.839Z,989.50
2022-08-17T02:14:36.826Z,989.44
2022-08-17T02:15:36.814Z,989.39
2022-08-17T02:16:38.232Z,989.46
2022-08-17T02:17:36.787Z,989.52
2022-08-17T02:18:36.775Z,989.43
2022-08-17T02:19:36.761Z,989.43
2022-08-17T02:20:42.558Z,989.45
2022-08-17T02:21:36.761Z,989.42
2022-08-17T02:22:36.722Z,989.40
2022-08-17T02:23:36.710Z,989.37
2022-08-17T02:24:58.798Z,989.44
2022-08-17T02:25:36.685Z,989.44
2022-08-17T02:26:36.669Z,989.39
2022-08-17T02:27:36.660Z,989.49
2022-08-17T02:28:36.644Z,989.55
2022-08-17T02:29:36.633Z,989.54
2022-08-17T02:30:59.329Z,989.58
2022-08-17T02:31:36.610Z,989.53
2022-08-17T02:32:36.593Z,989.51
2022-08-17T02:33:43.298Z,989.49
2022-08-17T02:34:36.567Z,989.51
2022-08-17T02:35:36.556Z,989.49
2022-08-17T02:36:36.541Z,989.50
2022-08-17T02:37:36.531Z,989.52
2022-08-17T02:38:36.515Z,989.52
2022-08-17T02:39:36.537Z,989.49
2022-08-17T02:40:36.754Z,989.45
2022-08-17T02:41:36.479Z,989.52
2022-08-17T02:42:36.464Z,989.51
2022-08-17T02:43:36.452Z,989.45
2022-08-17T02:44:39.929Z,989.44
2022-08-17T02:45:36.427Z,989.45
2022-08-17T02:46:36.410Z,989.41
2022-08-17T02:47:36.401Z,989.40
2022-08-17T02:48:36.385Z,989.43
2022-08-17T02:49:36.375Z,989.40
2022-08-17T02:50:36.359Z,989.36
2022-08-17T02:51:36.351Z,989.41
2022-08-17T02:52:42.863Z,989.40
2022-08-17T02:53:36.377Z,989.40
2022-08-17T02:54:40.375Z,989.41
2022-08-17T02:55:36.298Z,989.45
2022-08-17T02:56:36.282Z,989.43
2022-08-17T02:57:36.271Z,989.38
2022-08-17T02:58:36.358Z,989.41
2022-08-17T02:59:36.245Z,989.45
2022-08-17T03:00:36.244Z,989.42
2022-08-17T03:01:36.323Z,989.41
2022-08-17T03:02:36.205Z,989.39
2022-08-17T03:03:36.193Z,989.37
2022-08-17T03:04:36.179Z,989.40
2022-08-17T03:05:36.169Z,989.45
2022-08-17T03:06:36.152Z,989.49
2022-08-17T03:07:36.142Z,989.39
2022-08-17T03:08:36.131Z,989.40
2022-08-17T03:09:36.116Z,989.37
2022-08-17T03:11:36.088Z,989.30
2022-08-17T03:12:36.075Z,989.30
2022-08-17T03:13:36.064Z,989.31
2022-08-17T03:14:41.128Z,989.32
2022-08-17T03:15:36.038Z,989.37
2022-08-17T03:16:36.022Z,989.37
2022-08-17T03:17:36.012Z,989.38
2022-08-17T03:18:35.997Z,989.43
2022-08-17T03:19:35.986Z,989.41
2022-08-17T03:20:35.971Z,989.43
2022-08-17T03:21:35.959Z,989.44
2022-08-17T03:22:38.472Z,989.45
2022-08-17T03:23:35.934Z,989.51
2022-08-17T03:24:35.919Z,989.46
2022-08-17T03:25:35.909Z,989.46
2022-08-17T03:26:35.894Z,989.51
2022-08-17T03:27:35.883Z,989.55
2022-08-17T03:28:35.867Z,989.48
2022-08-17T03:29:35.855Z,989.52
2022-08-17T03:30:35.841Z,989.50
2022-08-17T03:31:37.164Z,989.53
2022-08-17T03:32:35.815Z,989.55
2022-08-17T03:33:35.803Z,989.50
2022-08-17T03:34:35.788Z,989.53
2022-08-17T03:35:35.777Z,989.54
2022-08-17T03:36:36.125Z,989.55
2022-08-17T03:37:35.751Z,989.57
2022-08-17T03:38:38.999Z,989.55
2022-08-17T03:39:35.809Z,989.59
2022-08-17T03:40:56.594Z,989.57
2022-08-17T03:41:37.697Z,989.55
2022-08-17T03:42:35.687Z,989.55
2022-08-17T03:43:35.674Z,989.61
2022-08-17T03:44:35.661Z,989.58
2022-08-17T03:45:35.646Z,989.57
2022-08-17T03:46:35.746Z,989.55
2022-08-17T03:47:35.627Z,989.58
2022-08-17T03:48:35.610Z,989.50
2022-08-17T03:49:35.594Z,989.54
2022-08-17T03:50:35.582Z,989.54
2022-08-17T03:51:35.570Z,989.48
2022-08-17T03:52:35.564Z,989.46
2022-08-17T03:53:35.542Z,989.47
2022-08-17T03:54:35.532Z,989.50
2022-08-17T03:55:36.096Z,989.55
2022-08-17T03:56:35.506Z,989.56
2022-08-17T03:57:35.492Z,989.50
2022-08-17T03:58:35.480Z,989.53
2022-08-17T03:59:35.468Z,989.51
2022-08-17T04:00:35.453Z,989.52
2022-08-17T04:01:35.538Z,989.58
2022-08-17T04:02:35.426Z,989.56
2022-08-17T04:03:35.413Z,989.49
2022-08-17T04:04:35.402Z,989.50
2022-08-17T04:05:35.388Z,989.51
2022-08-17T04:06:35.376Z,989.57
2022-08-17T04:07:35.361Z,989.57
2022-08-17T04:08:35.349Z,989.52
2022-08-17T04:09:35.335Z,989.52
2022-08-17T04:10:41.392Z,989.55
2022-08-17T04:11:35.310Z,989.53
2022-08-17T04:12:35.299Z,989.56
2022-08-17T04:13:35.284Z,989.52
2022-08-17T04:14:35.273Z,989.56
2022-08-17T04:15:35.258Z,989.52
2022-08-17T04:16:35.247Z,989.52
2022-08-17T04:17:35.237Z,989.55
2022-08-17T04:18:35.221Z,989.50
2022-08-17T04:19:35.209Z,989.49
2022-08-17T04:20:35.194Z,989.44
2022-08-17T04:21:35.181Z,989.48
2022-08-17T04:22:35.169Z,989.56
2022-08-17T04:23:35.155Z,989.51
2022-08-17T04:24:35.143Z,989.55
2022-08-17T04:25:35.129Z,989.50
2022-08-17T04:26:53.283Z,989.50
2022-08-17T04:27:35.134Z,989.49
2022-08-17T04:28:35.093Z,989.51
2022-08-17T04:29:54.457Z,989.50
2022-08-17T04:30:35.066Z,989.53
2022-08-17T04:31:35.052Z,989.55
2022-08-17T04:33:04.351Z,989.52
2022-08-17T04:33:35.025Z,989.52
2022-08-17T04:34:35.015Z,989.51
2022-08-17T04:35:34.999Z,989.49
2022-08-17T04:36:34.989Z,989.49
2022-08-17T04:37:34.977Z,989.49
2022-08-17T04:38:34.963Z,989.51
2022-08-17T04:39:35.007Z,989.53
2022-08-17T04:40:34.938Z,989.48
2022-08-17T04:41:34.921Z,989.56
2022-08-17T04:42:34.912Z,989.50
2022-08-17T04:43:34.898Z,989.54
2022-08-17T04:44:37.629Z,989.54
2022-08-17T04:45:34.870Z,989.49
2022-08-17T04:46:34.859Z,989.49
2022-08-17T04:47:34.845Z,989.51
2022-08-17T04:48:36.207Z,989.50
2022-08-17T04:49:34.822Z,989.53
2022-08-17T04:50:34.806Z,989.53
2022-08-17T04:51:34.793Z,989.53
2022-08-17T04:52:53.782Z,989.53
2022-08-17T04:53:34.767Z,989.49
2022-08-17T04:54:34.755Z,989.51
2022-08-17T04:55:34.740Z,989.43
2022-08-17T04:56:34.729Z,989.47
2022-08-17T04:57:39.521Z,989.50
2022-08-17T04:58:34.705Z,989.50
2022-08-17T04:59:34.689Z,989.50
2022-08-17T05:00:34.677Z,989.50
2022-08-17T05:01:34.723Z,989.57
2022-08-17T05:02:34.651Z,989.61
2022-08-17T05:03:34.643Z,989.60
2022-08-17T05:04:35.489Z,989.67
2022-08-17T05:05:34.611Z,989.62
2022-08-17T05:06:34.599Z,989.62
2022-08-17T05:07:34.586Z,989.68
2022-08-17T05:08:34.574Z,989.71
2022-08-17T05:09:34.559Z,989.69
2022-08-17T05:10:34.549Z,989.74
2022-08-17T05:11:34.533Z,989.69
2022-08-17T05:12:34.550Z,989.71
2022-08-17T05:13:34.509Z,989.65
2022-08-17T05:14:34.495Z,989.69
2022-08-17T05:15:36.095Z,989.71
2022-08-17T05:16:34.470Z,989.72
2022-08-17T05:17:34.455Z,989.72
2022-08-17T05:18:34.443Z,989.79
2022-08-17T05:19:34.429Z,989.74
2022-08-17T05:20:34.416Z,989.75
2022-08-17T05:21:34.403Z,989.74
2022-08-17T05:22:34.393Z,989.60
2022-08-17T05:23:43.013Z,989.64
2022-08-17T05:24:42.644Z,989.60
2022-08-17T05:25:34.559Z,989.59
2022-08-17T05:26:34.340Z,989.63
2022-08-17T05:27:35.375Z,989.62
2022-08-17T05:28:34.314Z,989.62
2022-08-17T05:29:35.730Z,989.66
2022-08-17T05:30:34.290Z,989.71
2022-08-17T05:31:34.275Z,989.75
2022-08-17T05:32:38.417Z,989.74
2022-08-17T05:33:34.253Z,989.77
2022-08-17T05:34:34.239Z,989.73
2022-08-17T05:35:34.226Z,989.73
2022-08-17T05:36:37.844Z,989.70
2022-08-17T05:37:34.201Z,989.77
2022-08-17T05:38:34.195Z,989.74
2022-08-17T05:39:34.214Z,989.72
2022-08-17T05:40:34.161Z,989.67
2022-08-17T05:41:34.151Z,989.66
2022-08-17T05:42:34.135Z,989.66
2022-08-17T05:43:34.120Z,989.67
2022-08-17T05:44:34.111Z,989.61
2022-08-17T05:45:54.779Z,989.59
2022-08-17T05:46:34.080Z,989.67
2022-08-17T05:47:34.066Z,989.60
2022-08-17T05:48:39.339Z,989.54
2022-08-17T05:49:34.038Z,989.49
2022-08-17T05:50:34.025Z,989.50
2022-08-17T05:51:34.011Z,989.47
2022-08-17T05:52:33.998Z,989.44
2022-08-17T05:53:35.747Z,989.47
2022-08-17T05:54:33.973Z,989.44
2022-08-17T05:55:33.959Z,989.44
2022-08-17T05:56:33.947Z,989.42
2022-08-17T05:57:33.931Z,989.40
2022-08-17T05:58:33.919Z,989.36
2022-08-17T05:59:33.905Z,989.35
2022-08-17T06:00:33.893Z,989.39
2022-08-17T06:01:33.906Z,989.43
2022-08-17T06:02:33.868Z,989.38
2022-08-17T06:03:33.853Z,989.38
2022-08-17T06:04:33.841Z,989.38
2022-08-17T06:05:33.826Z,989.37
2022-08-17T06:06:33.815Z,989.41
2022-08-17T06:07:33.798Z,989.43
2022-08-17T06:08:33.786Z,989.46
2022-08-17T06:09:34.138Z,989.45
2022-08-17T06:10:33.762Z,989.48
2022-08-17T06:11:35.238Z,989.50
2022-08-17T06:12:33.732Z,989.53
2022-08-17T06:13:33.720Z,989.56
2022-08-17T06:14:33.707Z,989.53
2022-08-17T06:15:33.702Z,989.57
2022-08-17T06:16:34.846Z,989.54
2022-08-17T06:17:33.667Z,989.54
2022-08-17T06:18:33.654Z,989.58
2022-08-17T06:19:33.639Z,989.52
2022-08-17T06:20:33.627Z,989.49
2022-08-17T06:21:33.614Z,989.43
2022-08-17T06:22:33.602Z,989.38
2022-08-17T06:23:33.585Z,989.49
2022-08-17T06:24:33.573Z,989.47
2022-08-17T06:25:33.559Z,989.45
2022-08-17T06:26:38.339Z,989.44
2022-08-17T06:27:33.534Z,989.50
2022-08-17T06:28:33.522Z,989.50
2022-08-17T06:29:33.514Z,989.43
2022-08-17T06:30:35.754Z,989.48
2022-08-17T06:31:35.481Z,989.52
2022-08-17T06:32:33.473Z,989.48
2022-08-17T06:33:33.457Z,989.54
2022-08-17T06:34:33.447Z,989.60
2022-08-17T06:35:33.594Z,989.57
2022-08-17T06:36:33.421Z,989.54
2022-08-17T06:37:33.406Z,989.61
2022-08-17T06:38:38.257Z,989.55
2022-08-17T06:39:33.438Z,989.44
2022-08-17T06:40:33.369Z,989.50
2022-08-17T06:41:33.354Z,989.51
2022-08-17T06:42:54.861Z,989.54
2022-08-17T06:43:33.329Z,989.44
2022-08-17T06:44:43.238Z,989.48
2022-08-17T06:45:33.303Z,989.51
2022-08-17T06:46:33.292Z,989.50
2022-08-17T06:47:33.278Z,989.51
2022-08-17T06:48:33.267Z,989.50
2022-08-17T06:49:33.259Z,989.51
2022-08-17T06:50:33.240Z,989.54
2022-08-17T06:51:33.226Z,989.47
2022-08-17T06:52:45.974Z,989.51
2022-08-17T06:53:33.201Z,989.51
2022-08-17T06:54:33.189Z,989.54
2022-08-17T06:55:37.739Z,989.51
2022-08-17T06:56:53.727Z,989.51
2022-08-17T06:57:33.160Z,989.49
2022-08-17T06:58:33.141Z,989.49
2022-08-17T06:59:47.122Z,989.44
2022-08-17T07:00:33.141Z,989.50
2022-08-17T07:01:33.175Z,989.46
2022-08-17T07:02:51.477Z,989.52
2022-08-17T07:03:33.073Z,989.55
2022-08-17T07:04:33.061Z,989.50
2022-08-17T07:05:33.047Z,989.48
2022-08-17T07:06:33.035Z,989.46
2022-08-17T07:07:33.021Z,989.49
2022-08-17T07:08:35.005Z,989.47
2022-08-17T07:09:32.995Z,989.41
2022-08-17T07:10:32.982Z,989.51
2022-08-17T07:12:32.957Z,989.43
2022-08-17T07:13:32.941Z,989.43
2022-08-17T07:14:32.930Z,989.46
2022-08-17T07:15:32.917Z,989.47
2022-08-17T07:16:32.907Z,989.45
2022-08-17T07:17:46.636Z,989.43
2022-08-17T07:18:32.879Z,989.40
2022-08-17T07:19:32.866Z,989.47
2022-08-17T07:21:32.841Z,989.44
2022-08-17T07:22:50.557Z,989.43
2022-08-17T07:23:34.827Z,989.44
2022-08-17T07:24:32.804Z,989.44
2022-08-17T07:25:32.790Z,989.51
2022-08-17T07:26:32.796Z,989.44
2022-08-17T07:27:32.768Z,989.38
2022-08-17T07:28:32.800Z,989.34
2022-08-17T07:29:32.740Z,989.42
2022-08-17T07:30:37.204Z,989.45
2022-08-17T07:31:32.717Z,989.46
2022-08-17T07:32:32.705Z,989.48
2022-08-17T07:33:32.694Z,989.49
2022-08-17T07:34:32.681Z,989.47
2022-08-17T07:35:40.691Z,989.45
2022-08-17T07:36:32.656Z,989.42
2022-08-17T07:37:32.650Z,989.46
2022-08-17T07:38:32.632Z,989.42
2022-08-17T07:39:32.650Z,989.45
2022-08-17T07:40:32.648Z,989.41
2022-08-17T07:41:57.250Z,989.53
2022-08-17T07:42:34.316Z,989.51
2022-08-17T07:43:32.570Z,989.58
2022-08-17T07:44:32.558Z,989.59
2022-08-17T07:45:32.546Z,989.56
2022-08-17T07:46:32.557Z,989.57
2022-08-17T07:47:32.522Z,989.58
2022-08-17T07:48:32.510Z,989.56
2022-08-17T07:49:32.496Z,989.53
2022-08-17T07:50:32.486Z,989.52
2022-08-17T07:51:32.472Z,989.56
2022-08-17T07:52:50.366Z,989.51
2022-08-17T07:53:32.454Z,989.53
2022-08-17T07:54:32.437Z,989.53
2022-08-17T07:55:32.427Z,989.46
2022-08-17T07:56:34.421Z,989.50
2022-08-17T07:57:32.405Z,989.47
2022-08-17T07:58:32.385Z,989.48
2022-08-17T07:59:33.456Z,989.46
2022-08-17T08:00:33.062Z,989.56
2022-08-17T08:01:39.657Z,989.60
2022-08-17T08:02:33.829Z,989.65
2022-08-17T08:03:32.326Z,989.73
2022-08-17T08:05:02.234Z,989.77
2022-08-17T08:05:49.766Z,989.76
2022-08-17T08:06:32.284Z,989.72
2022-08-17T08:07:32.273Z,989.77
2022-08-17T08:08:32.260Z,989.76
2022-08-17T08:09:32.248Z,989.68
2022-08-17T08:10:32.239Z,989.72
2022-08-17T08:11:32.222Z,989.69
2022-08-17T08:12:33.621Z,989.70
2022-08-17T08:13:32.247Z,989.71
2022-08-17T08:14:32.184Z,989.73
2022-08-17T08:15:32.173Z,989.77
2022-08-17T08:16:32.163Z,989.79
2022-08-17T08:17:32.147Z,989.86
2022-08-17T08:18:54.817Z,989.77
2022-08-17T08:19:32.123Z,989.88
2022-08-17T08:20:40.861Z,989.92
2022-08-17T08:21:32.102Z,989.97
2022-08-17T08:22:32.085Z,990.02
2022-08-17T08:23:32.084Z,990.11
2022-08-17T08:24:32.064Z,990.12
2022-08-17T08:25:32.055Z,990.08
2022-08-17T08:26:32.036Z,990.11
2022-08-17T08:27:32.030Z,990.06
2022-08-17T08:28:32.011Z,990.11
2022-08-17T08:29:32.000Z,990.22
2022-08-17T08:30:33.040Z,990.24
2022-08-17T08:31:31.977Z,990.29
2022-08-17T08:32:31.961Z,990.30
2022-08-17T08:33:31.958Z,990.22
2022-08-17T08:34:58.843Z,990.24
2022-08-17T08:35:33.923Z,990.18
2022-08-17T08:37:12.487Z,990.11
2022-08-17T08:37:38.001Z,990.06
2022-08-17T08:38:31.884Z,990.11
2022-08-17T08:39:31.897Z,990.07
2022-08-17T08:40:31.859Z,990.12
2022-08-17T08:41:31.846Z,990.02
2022-08-17T08:42:31.833Z,989.99
2022-08-17T08:43:31.823Z,989.92
2022-08-17T08:45:00.116Z,989.87
2022-08-17T08:45:33.798Z,989.85
2022-08-17T08:46:31.787Z,989.81
2022-08-17T08:47:31.774Z,989.74
2022-08-17T08:48:56.652Z,989.72
2022-08-17T08:50:01.416Z,989.64
2022-08-17T08:50:37.461Z,989.68
2022-08-17T08:51:33.721Z,989.68
2022-08-17T08:52:31.718Z,989.71
2022-08-17T08:53:31.696Z,989.73
2022-08-17T08:54:31.684Z,989.81
2022-08-17T08:55:31.669Z,989.76
2022-08-17T08:56:31.660Z,989.80
2022-08-17T08:57:34.282Z,989.77
2022-08-17T08:58:41.303Z,989.79
2022-08-17T08:59:31.620Z,989.72
2022-08-17T09:00:31.603Z,989.75
2022-08-17T09:01:31.620Z,989.79
2022-08-17T09:02:34.629Z,989.86
2022-08-17T09:03:49.741Z,989.88
2022-08-17T09:04:40.747Z,989.81
2022-08-17T09:05:31.541Z,989.85
2022-08-17T09:06:37.851Z,989.85
2022-08-17T09:07:31.515Z,989.88
2022-08-17T09:08:31.499Z,989.89
2022-08-17T09:09:31.489Z,989.96
2022-08-17T09:10:31.474Z,990.02
2022-08-17T09:11:31.502Z,990.10
2022-08-17T09:12:31.450Z,990.16
2022-08-17T09:13:31.439Z,990.15
2022-08-17T09:14:31.425Z,990.15
2022-08-17T09:15:31.412Z,990.17
2022-08-17T09:16:31.400Z,990.15
2022-08-17T09:17:31.389Z,990.17
2022-08-17T09:19:03.265Z,990.16
2022-08-17T09:19:33.364Z,990.09
2022-08-17T09:20:31.348Z,990.05
2022-08-17T09:21:33.801Z,990.03
2022-08-17T09:22:31.345Z,990.04
2022-08-17T09:23:31.313Z,990.08
2022-08-17T09:24:31.299Z,990.01
2022-08-17T09:25:31.287Z,990.02
2022-08-17T09:26:31.273Z,990.00
2022-08-17T09:27:31.263Z,990.00
2022-08-17T09:28:31.250Z,990.01
2022-08-17T09:29:31.239Z,989.96
2022-08-17T09:30:31.224Z,989.96
2022-08-17T09:31:33.372Z,989.94
2022-08-17T09:32:31.198Z,989.92
2022-08-17T09:33:31.191Z,989.88
2022-08-17T09:34:33.040Z,989.86
2022-08-17T09:35:32.803Z,989.87
2022-08-17T09:36:33.148Z,989.81
2022-08-17T09:37:31.138Z,989.83
2022-08-17T09:38:32.685Z,989.86
2022-08-17T09:39:31.196Z,989.90
2022-08-17T09:40:31.100Z,989.97
2022-08-17T09:41:31.091Z,989.90
2022-08-17T09:42:31.075Z,989.95
2022-08-17T09:43:31.063Z,989.96
2022-08-17T09:44:31.066Z,989.90
2022-08-17T09:45:31.037Z,989.91
2022-08-17T09:46:31.030Z,989.92
2022-08-17T09:47:31.011Z,989.88
2022-08-17T09:48:30.998Z,989.88
2022-08-17T09:49:30.986Z,989.88
2022-08-17T09:51:05.174Z,989.86
2022-08-17T09:51:30.967Z,989.82
2022-08-17T09:52:30.947Z,989.81
2022-08-17T09:53:31.992Z,989.88
2022-08-17T09:54:39.952Z,989.91
2022-08-17T09:55:32.912Z,989.96
2022-08-17T09:56:30.897Z,990.00
2022-08-17T09:57:32.025Z,990.02
2022-08-17T09:58:30.875Z,989.97
2022-08-17T09:59:34.230Z,989.90
2022-08-17T10:00:30.847Z,989.91
2022-08-17T10:01:30.898Z,989.98
2022-08-17T10:02:30.827Z,989.97
2022-08-17T10:03:30.811Z,990.04
2022-08-17T10:04:30.797Z,990.06
2022-08-17T10:05:30.785Z,990.06
2022-08-17T10:06:30.771Z,990.14
2022-08-17T10:07:30.780Z,990.12
2022-08-17T10:08:30.758Z,990.18
2022-08-17T10:09:30.756Z,990.17
2022-08-17T10:10:32.369Z,990.12
2022-08-17T10:11:33.598Z,990.18
2022-08-17T10:12:30.698Z,990.17
2022-08-17T10:13:30.687Z,990.21
2022-08-17T10:14:38.013Z,990.19
2022-08-17T10:15:30.659Z,990.18
2022-08-17T10:16:30.650Z,990.15
2022-08-17T10:17:30.638Z,990.13
2022-08-17T10:18:33.247Z,990.16
2022-08-17T10:19:30.610Z,990.17
2022-08-17T10:20:30.600Z,990.19
2022-08-17T10:21:30.590Z,990.21
2022-08-17T10:22:35.363Z,990.16
2022-08-17T10:23:30.558Z,990.19
2022-08-17T10:24:30.546Z,990.15
2022-08-17T10:25:53.508Z,990.12
2022-08-17T10:26:40.279Z,990.10
2022-08-17T10:27:30.509Z,990.12
2022-08-17T10:28:30.632Z,990.16
2022-08-17T10:29:30.483Z,990.18
2022-08-17T10:30:30.469Z,990.17
2022-08-17T10:31:35.044Z,990.19
2022-08-17T10:32:30.446Z,990.24
2022-08-17T10:33:30.439Z,990.13
2022-08-17T10:34:30.428Z,990.17
2022-08-17T10:35:30.408Z,990.20
2022-08-17T10:36:30.394Z,990.13
2022-08-17T10:37:30.384Z,990.25
2022-08-17T10:38:30.372Z,990.20
2022-08-17T10:39:30.388Z,990.23
2022-08-17T10:40:30.425Z,990.25
2022-08-17T10:41:30.333Z,990.26
2022-08-17T10:42:32.681Z,990.29
2022-08-17T10:43:30.307Z,990.31
2022-08-17T10:44:38.758Z,990.30
2022-08-17T10:45:30.287Z,990.34
2022-08-17T10:46:31.825Z,990.27
2022-08-17T10:47:42.289Z,990.29
2022-08-17T10:48:30.244Z,990.33
2022-08-17T10:49:30.233Z,990.29
2022-08-17T10:50:30.222Z,990.29
2022-08-17T10:51:30.208Z,990.28
2022-08-17T10:52:30.194Z,990.30
2022-08-17T10:53:30.182Z,990.26
2022-08-17T10:54:30.170Z,990.26
2022-08-17T10:55:30.158Z,990.33
2022-08-17T10:56:30.144Z,990.31
2022-08-17T10:57:30.132Z,990.24
2022-08-17T10:58:30.121Z,990.25
2022-08-17T10:59:30.107Z,990.16
2022-08-17T11:00:30.094Z,990.10
2022-08-17T11:01:30.186Z,990.12
2022-08-17T11:02:30.069Z,990.07
2022-08-17T11:03:30.057Z,990.11
2022-08-17T11:04:30.044Z,990.11
2022-08-17T11:05:30.033Z,990.17
2022-08-17T11:06:30.027Z,990.15
2022-08-17T11:07:30.014Z,990.10
2022-08-17T11:08:29.993Z,990.15
2022-08-17T11:09:29.982Z,990.06
2022-08-17T11:10:29.968Z,989.95
2022-08-17T11:11:29.957Z,989.96
2022-08-17T11:13:29.935Z,989.90
2022-08-17T11:14:29.919Z,989.92
2022-08-17T11:15:31.277Z,989.99
2022-08-17T11:16:29.895Z,990.03
2022-08-17T11:17:29.883Z,990.02
2022-08-17T11:18:29.875Z,990.04
2022-08-17T11:19:29.858Z,990.00
2022-08-17T11:20:29.856Z,990.08
2022-08-17T11:21:29.834Z,990.05
2022-08-17T11:22:33.343Z,990.06
2022-08-17T11:23:29.807Z,990.06
2022-08-17T11:24:29.794Z,990.08
2022-08-17T11:25:29.783Z,990.03
2022-08-17T11:26:29.773Z,990.00
2022-08-17T11:27:29.757Z,989.94
2022-08-17T11:28:29.744Z,990.02
2022-08-17T11:29:29.735Z,990.14
2022-08-17T11:30:29.722Z,989.97
2022-08-17T11:31:38.432Z,989.96
2022-08-17T11:32:31.694Z,989.94
2022-08-17T11:33:29.682Z,989.99
2022-08-17T11:34:29.670Z,989.93
2022-08-17T11:35:29.666Z,989.91
2022-08-17T11:36:29.646Z,989.98
2022-08-17T11:37:29.634Z,989.90
2022-08-17T11:38:29.622Z,989.89
2022-08-17T11:39:29.665Z,990.01
2022-08-17T11:40:29.600Z,989.83
2022-08-17T11:41:29.584Z,989.79
2022-08-17T11:42:29.571Z,989.92
2022-08-17T11:43:29.562Z,989.89
2022-08-17T11:44:29.552Z,989.86
2022-08-17T11:45:32.608Z,989.90
2022-08-17T11:46:29.524Z,989.95
2022-08-17T11:47:29.513Z,989.98
2022-08-17T11:48:29.959Z,989.95
2022-08-17T11:49:29.490Z,989.89
2022-08-17T11:50:29.475Z,989.99
2022-08-17T11:51:29.473Z,989.99
2022-08-17T11:52:29.456Z,989.97
2022-08-17T11:53:29.441Z,989.95
2022-08-17T11:54:34.157Z,989.92
2022-08-17T11:55:35.799Z,989.96
2022-08-17T11:56:31.404Z,989.95
2022-08-17T11:57:29.398Z,989.91
2022-08-17T11:58:29.381Z,989.88
2022-08-17T11:59:29.372Z,989.97
2022-08-17T12:00:29.374Z,989.90
2022-08-17T12:01:29.348Z,989.95
2022-08-17T12:02:29.831Z,990.00
2022-08-17T12:03:29.385Z,989.86
2022-08-17T12:04:29.371Z,989.86
2022-08-17T12:05:29.304Z,989.82
2022-08-17T12:06:30.287Z,989.90
2022-08-17T12:07:29.280Z,989.85
2022-08-17T12:08:29.269Z,989.91
2022-08-17T12:09:29.260Z,989.95
2022-08-17T12:10:29.245Z,989.85
2022-08-17T12:12:01.607Z,989.91
2022-08-17T12:12:29.223Z,989.86
2022-08-17T12:13:38.451Z,989.88
2022-08-17T12:14:45.360Z,989.84
2022-08-17T12:15:29.187Z,989.88
2022-08-17T12:16:29.177Z,989.86
2022-08-17T12:17:39.783Z,989.84
2022-08-17T12:18:29.157Z,989.85
2022-08-17T12:19:29.142Z,989.84
2022-08-17T12:20:29.133Z,989.81
2022-08-17T12:21:29.125Z,989.74
2022-08-17T12:22:29.111Z,989.69
2022-08-17T12:23:29.098Z,989.68
2022-08-17T12:24:29.089Z,989.70
2022-08-17T12:25:29.074Z,989.68
2022-08-17T12:26:29.068Z,989.68
2022-08-17T12:28:04.140Z,989.62
2022-08-17T12:28:29.047Z,989.67
2022-08-17T12:29:35.824Z,989.65
2022-08-17T12:30:29.018Z,989.60
2022-08-17T12:31:29.006Z,989.59
2022-08-17T12:32:28.996Z,989.67